Página principal
METAR-TAF:

METAR-TAF

Aeroportos :

Almagro, Espanha

latitude: 38-57-11N, longitude: 3-44-29W, altura: 629 m

Observação actual do tempo

O boletim foi feito há 11 horas e 48 minutos, às 18:00 UTC
Vento 9 kt de oeste, variando entre sudoeste e oes-noroeste
Temperatura 17°C
Humidade 68%
Pressão 1012 hPa
Visibilidade 10 km ou mais
Poucas nuvensa uma altura de 3500 ft, Cumulus congestus.
Nuvens dispersasa uma altura de 4900 ft

METAR: LEAO 251800Z 26009KT 230V290 9999 FEW035TCU SCT049 17/11 Q1012

Hora: 07:48 (05:48 UTC)


TAF: em falta

Observações e previsões do tempo de mais de 4000 aeroportos (mensagens METAR e TAF).

As estações disponíveis são os pontos amarelos e vermelhos sobre o mapa.

Mova o rato sobre o mapa para ver o nome da estação.

Depois clique no ponto para visualizar as observações e previsões meteorológicas.

Para alterar o mapa : clique nos botões verdes com uma cruz preta para aumentar o zoom; no botão verde com uma pitada de zoom; ou nas setas verdes para mapas adjacentes.


METAR-TAF: